Aviation Digital Data Service (ADDS)

Output produced by METARs form (0651 UTC 28 September 2016)
found at http://aviationweather.gov/adds/metars/
 
KRWI 280526Z 2806/2906 16002KT 2SM BR SCT003 
     TEMPO 2806/2810 1/4SM FG VV001 
     FM281300 17003KT P6SM SCT030 BKN100 
     FM282100 17005KT P6SM VCTS SCT035CB